This is the latest recevied weather packets stored in our database for station/object K5NWZ. If no packets are shown the sender has not sent any weather packets the latest 10 day(s).
| Time | Temp. | Humidity | Pressure | Rain* | Wind** | Luminosity | Snow |
|---|---|---|---|---|---|---|---|
| 1777479161 | 11.11° C | 55% | 1028.4 hPa | 0 mm | - | 391 W/m² | - |
| 1777478858 | 10.56° C | 56% | 1028.3 hPa | 0 mm | - | 479 W/m² | - |
| 1777478554 | 11.11° C | 56% | 1028.2 hPa | 0 mm | - | 445 W/m² | - |
| 1777478252 | 11.11° C | 56% | 1028.3 hPa | 0 mm | - | 611 W/m² | - |
| 1777477948 | 11.11° C | 56% | 1028.6 hPa | 0 mm | - | 621 W/m² | - |
| 1777477643 | 11.11° C | 56% | 1028.2 hPa | 0 mm | - | 589 W/m² | - |
| 1777477340 | 10.56° C | 58% | 1028.3 hPa | 0 mm | - | 479 W/m² | - |
| 1777477037 | 11.67° C | 56% | 1028.6 hPa | 0 mm | - | 467 W/m² | - |
| 1777476735 | 10.56° C | 58% | 1028.4 hPa | 0 mm | - | 363 W/m² | - |
| 1777476431 | 10° C | 59% | 1028.6 hPa | 0 mm | - | 482 W/m² | - |
| 1777476127 | 10° C | 60% | 1028.6 hPa | 0 mm | - | 255 W/m² | - |
| 1777475823 | 10.56° C | 60% | 1028.7 hPa | 0 mm | - | 499 W/m² | - |
| 1777475519 | 10.56° C | 59% | 1028.6 hPa | 0 mm | - | 314 W/m² | - |
| 1777475216 | 10° C | 58% | 1028.7 hPa | 0 mm | - | 446 W/m² | - |
| 1777474911 | 8.89° C | 62% | 1028.9 hPa | 0 mm | - | 401 W/m² | - |
| 1777474607 | 8.89° C | 63% | 1028.8 hPa | 0 mm | - | 385 W/m² | - |
| 1777474304 | 8.89° C | 63% | 1029 hPa | 0 mm | - | 363 W/m² | - |
| 1777474000 | 8.89° C | 63% | 1029 hPa | 0 mm | - | 346 W/m² | - |
| 1777473699 | 8.33° C | 63% | 1028.8 hPa | 0 mm | - | 336 W/m² | - |
| 1777473394 | 8.89° C | 62% | 1029.1 hPa | 0 mm | - | 322 W/m² | - |
| 1777473090 | 8.33° C | 63% | 1029 hPa | 0 mm | - | 306 W/m² | - |
| 1777472788 | 8.33° C | 64% | 1029 hPa | 0 mm | - | 293 W/m² | - |
| 1777472484 | 8.33° C | 64% | 1029 hPa | 0 mm | - | 277 W/m² | - |
| 1777472181 | 7.78° C | 65% | 1029.1 hPa | 0 mm | - | 265 W/m² | - |
| 1777471881 | 7.22° C | 65% | 1029.1 hPa | 0 mm | - | 249 W/m² | - |
* Rain latest hour (hover to see other rain measurements)
** Current wind speed in m/s (hover to see current wind gust speed)